createdAt,value
2022-12-03T00:01:49.149Z,30.30
2022-12-03T00:04:19.138Z,29.80
2022-12-03T00:06:47.069Z,30.50
2022-12-03T00:09:15.118Z,32.00
2022-12-03T00:11:43.067Z,30.60
2022-12-03T00:14:11.057Z,29.00
2022-12-03T00:16:39.091Z,28.70
2022-12-03T00:19:09.674Z,28.50
2022-12-03T00:21:37.454Z,29.00
2022-12-03T00:24:06.156Z,27.60
2022-12-03T00:26:34.260Z,26.80
2022-12-03T00:29:02.558Z,27.20
2022-12-03T00:31:31.004Z,26.70
2022-12-03T00:34:00.261Z,28.60
2022-12-03T00:36:31.364Z,26.40
2022-12-03T00:38:59.873Z,27.40
2022-12-03T00:41:27.989Z,26.90
2022-12-03T00:43:58.011Z,28.30
2022-12-03T00:46:28.689Z,28.90
2022-12-03T00:51:29.855Z,27.30
2022-12-03T00:53:57.906Z,31.40
2022-12-03T00:56:25.991Z,30.10
2022-12-03T00:58:54.380Z,29.70
2022-12-03T01:01:23.629Z,31.70
2022-12-03T01:03:51.899Z,32.00
2022-12-03T01:06:19.677Z,34.00
2022-12-03T01:08:47.944Z,34.80
2022-12-03T01:11:34.548Z,32.10
2022-12-03T01:14:14.307Z,31.60
2022-12-03T01:16:44.056Z,33.60
2022-12-03T01:19:17.248Z,33.40
2022-12-03T01:21:49.269Z,32.40
2022-12-03T01:24:19.003Z,33.60
2022-12-03T01:26:47.221Z,36.90
2022-12-03T01:29:16.061Z,35.50
2022-12-03T01:32:02.918Z,34.40
2022-12-03T01:34:31.138Z,32.50
2022-12-03T01:37:00.505Z,33.70
2022-12-03T01:39:28.418Z,34.10
2022-12-03T01:41:59.098Z,33.10
2022-12-03T01:44:35.276Z,32.70
2022-12-03T01:47:06.821Z,32.50
2022-12-03T01:50:08.000Z,33.80
2022-12-03T01:52:38.229Z,29.00
2022-12-03T01:55:13.213Z,33.10
2022-12-03T01:57:48.383Z,30.10
2022-12-03T02:00:23.358Z,30.60
2022-12-03T02:03:01.616Z,33.40
2022-12-03T02:05:34.298Z,33.80
2022-12-03T02:08:02.225Z,31.60
2022-12-03T02:10:35.365Z,30.30
2022-12-03T02:15:39.882Z,30.00
2022-12-03T02:18:11.558Z,28.50
2022-12-03T02:20:53.526Z,26.30
2022-12-03T02:23:36.321Z,27.60
2022-12-03T02:26:04.627Z,28.50
2022-12-03T02:28:34.359Z,28.70
2022-12-03T02:31:02.524Z,26.40
2022-12-03T02:33:35.004Z,28.20
2022-12-03T02:36:04.465Z,25.60
2022-12-03T02:38:38.761Z,27.90
2022-12-03T02:41:11.020Z,24.80
2022-12-03T02:43:39.195Z,29.90
2022-12-03T02:46:08.140Z,26.20
2022-12-03T02:48:46.649Z,28.30
2022-12-03T02:51:14.747Z,25.30
2022-12-03T02:53:50.129Z,27.20
2022-12-03T02:56:21.480Z,26.50
2022-12-03T02:58:55.621Z,29.50
2022-12-03T03:01:23.466Z,32.50
2022-12-03T03:03:55.074Z,29.00
2022-12-03T03:06:26.511Z,27.90
2022-12-03T03:08:54.721Z,25.60
2022-12-03T03:11:23.396Z,28.80
2022-12-03T03:13:51.376Z,27.30
2022-12-03T03:16:19.416Z,25.40
2022-12-03T03:18:47.584Z,26.70
2022-12-03T03:21:15.290Z,29.00
2022-12-03T03:23:43.068Z,26.10
2022-12-03T03:26:13.760Z,25.60
2022-12-03T03:28:45.653Z,28.20
2022-12-03T03:31:16.090Z,26.80
2022-12-03T03:33:46.245Z,27.00
2022-12-03T03:36:14.980Z,27.40
2022-12-03T03:38:42.788Z,27.20
2022-12-03T03:41:11.439Z,26.90
2022-12-03T03:43:42.041Z,25.90
2022-12-03T03:46:10.679Z,24.70
2022-12-03T03:48:38.934Z,26.40
2022-12-03T03:51:09.493Z,27.90
2022-12-03T03:53:41.681Z,28.20
2022-12-03T03:56:09.951Z,28.00
2022-12-03T03:58:40.840Z,30.00
2022-12-03T04:01:11.570Z,28.20
2022-12-03T04:03:39.699Z,29.70
2022-12-03T04:06:11.395Z,28.50
2022-12-03T04:08:39.482Z,29.40
2022-12-03T04:11:26.281Z,28.30
2022-12-03T04:13:54.088Z,29.70
2022-12-03T04:16:21.900Z,30.50
2022-12-03T04:18:50.855Z,27.60
2022-12-03T04:21:42.341Z,28.00
2022-12-03T04:24:11.266Z,30.40
2022-12-03T04:26:57.635Z,28.30
2022-12-03T04:29:25.504Z,29.50
2022-12-03T04:32:11.867Z,26.40
2022-12-03T04:34:58.272Z,28.10
2022-12-03T04:37:26.133Z,29.10
2022-12-03T04:39:53.981Z,27.10
2022-12-03T04:42:22.017Z,29.80
2022-12-03T04:44:50.509Z,29.00
2022-12-03T04:47:20.699Z,30.70
2022-12-03T04:49:50.933Z,28.90
2022-12-03T04:52:19.955Z,28.70
2022-12-03T04:54:47.850Z,30.10
2022-12-03T04:57:15.813Z,28.70
2022-12-03T04:59:43.599Z,29.40
2022-12-03T05:02:11.457Z,26.90
2022-12-03T05:04:39.462Z,27.90
2022-12-03T05:07:07.217Z,28.00
2022-12-03T05:09:35.052Z,25.90
2022-12-03T05:12:03.760Z,25.40
2022-12-03T05:14:31.567Z,25.80
2022-12-03T05:16:59.376Z,25.00
2022-12-03T05:19:47.241Z,25.80
2022-12-03T05:22:17.396Z,24.20
2022-12-03T05:24:45.530Z,23.50
2022-12-03T05:27:15.015Z,24.60
2022-12-03T05:29:44.428Z,25.40
2022-12-03T05:32:12.204Z,27.40
2022-12-03T05:34:40.021Z,27.30
2022-12-03T05:37:07.869Z,32.30
2022-12-03T05:39:35.797Z,27.90
2022-12-03T05:42:22.089Z,30.30
2022-12-03T05:44:49.862Z,28.10
2022-12-03T05:47:17.608Z,27.60
2022-12-03T05:49:45.423Z,24.20
2022-12-03T05:52:13.235Z,26.10
2022-12-03T05:54:41.066Z,26.20
2022-12-03T05:57:08.863Z,27.40
2022-12-03T05:59:36.679Z,29.30
2022-12-03T06:02:04.547Z,28.30
2022-12-03T06:04:32.421Z,29.70
2022-12-03T06:07:00.288Z,30.90
2022-12-03T06:09:28.204Z,27.80
2022-12-03T06:11:56.216Z,28.60
2022-12-03T06:14:24.314Z,27.60
2022-12-03T06:16:52.152Z,28.80
2022-12-03T06:19:19.915Z,27.60
2022-12-03T06:21:47.706Z,29.70
2022-12-03T06:24:15.570Z,26.50
2022-12-03T06:26:43.438Z,27.60
2022-12-03T06:29:11.305Z,28.90
2022-12-03T06:31:39.216Z,24.50
2022-12-03T06:34:07.184Z,26.70
2022-12-03T06:36:36.008Z,27.50
2022-12-03T06:39:03.996Z,27.80
2022-12-03T06:41:31.780Z,26.30
2022-12-03T06:44:00.684Z,26.00
2022-12-03T06:46:28.632Z,25.70
2022-12-03T06:48:56.532Z,25.70
2022-12-03T06:51:24.437Z,27.00
2022-12-03T06:53:52.482Z,26.30
2022-12-03T06:56:22.455Z,26.60
2022-12-03T06:58:53.270Z,26.90
2022-12-03T07:01:21.418Z,25.60
2022-12-03T07:03:49.509Z,28.10
2022-12-03T07:06:17.475Z,30.20
2022-12-03T07:08:48.114Z,29.20
2022-12-03T07:11:31.315Z,28.60
2022-12-03T07:14:05.137Z,30.70
2022-12-03T07:16:35.799Z,27.60
2022-12-03T07:19:05.607Z,27.40
2022-12-03T07:21:33.780Z,28.50
2022-12-03T07:24:01.703Z,27.00
2022-12-03T07:26:29.759Z,29.00
2022-12-03T07:28:57.612Z,28.60
2022-12-03T07:31:25.551Z,27.00
2022-12-03T07:33:53.537Z,28.10
2022-12-03T07:36:21.557Z,27.00
2022-12-03T07:38:49.661Z,27.00
2022-12-03T07:41:17.538Z,28.20
2022-12-03T07:43:45.310Z,25.60
2022-12-03T07:46:13.254Z,28.00
2022-12-03T07:48:41.215Z,28.30
2022-12-03T07:51:14.294Z,27.00
2022-12-03T07:53:43.346Z,32.90
2022-12-03T07:56:11.272Z,33.40
2022-12-03T07:58:39.283Z,26.50
2022-12-03T08:01:07.502Z,25.00
2022-12-03T08:03:35.587Z,26.60
2022-12-03T08:06:03.775Z,26.30
2022-12-03T08:08:32.139Z,26.90
2022-12-03T08:11:02.362Z,25.80
2022-12-03T08:13:31.014Z,27.60
2022-12-03T08:16:02.225Z,28.50
2022-12-03T08:18:30.304Z,27.40
2022-12-03T08:20:58.455Z,29.00
2022-12-03T08:23:28.931Z,29.70
2022-12-03T08:26:02.195Z,25.60
2022-12-03T08:28:32.034Z,30.00
2022-12-03T08:31:07.689Z,31.90
2022-12-03T08:33:39.141Z,27.90
2022-12-03T08:36:17.399Z,29.40
2022-12-03T08:38:50.672Z,34.70
2022-12-03T08:41:38.423Z,30.30
2022-12-03T08:44:27.869Z,29.60
2022-12-03T08:47:21.867Z,32.90
2022-12-03T08:50:06.327Z,27.80
2022-12-03T08:52:34.822Z,33.30
2022-12-03T08:55:47.511Z,31.90
2022-12-03T08:58:28.210Z,28.90
2022-12-03T09:01:11.104Z,30.00
2022-12-03T09:06:29.856Z,33.00
2022-12-03T09:09:01.137Z,29.90
2022-12-03T09:11:33.861Z,32.00
2022-12-03T09:14:02.128Z,29.80
2022-12-03T09:16:30.906Z,29.00
2022-12-03T09:18:59.381Z,32.50
2022-12-03T09:21:27.438Z,32.80
2022-12-03T09:23:55.509Z,33.40
2022-12-03T09:26:23.407Z,37.10
2022-12-03T09:28:51.258Z,32.20
2022-12-03T09:31:19.910Z,36.20
2022-12-03T09:33:48.177Z,32.40
2022-12-03T09:36:16.331Z,33.60
2022-12-03T09:38:47.805Z,35.10
2022-12-03T09:41:16.396Z,44.70
2022-12-03T09:44:03.256Z,29.90
2022-12-03T09:46:34.833Z,29.70
2022-12-03T09:49:05.054Z,30.90
2022-12-03T09:51:36.860Z,32.10
2022-12-03T09:54:10.661Z,35.60
2022-12-03T09:56:39.063Z,35.00
2022-12-03T09:59:18.162Z,33.50
2022-12-03T10:01:46.202Z,34.10
2022-12-03T10:04:14.314Z,38.60
2022-12-03T10:06:45.794Z,34.30
2022-12-03T10:09:20.936Z,34.30
2022-12-03T10:11:49.006Z,31.40
2022-12-03T10:14:18.102Z,29.30
2022-12-03T10:16:46.342Z,36.70
2022-12-03T10:19:29.228Z,35.80
2022-12-03T10:21:57.754Z,30.70
2022-12-03T10:24:44.994Z,35.50
2022-12-03T10:27:29.804Z,32.20
2022-12-03T10:30:00.169Z,39.40
2022-12-03T10:32:44.997Z,36.70
2022-12-03T10:43:33.943Z,46.80
2022-12-03T10:46:04.113Z,40.10
2022-12-03T10:48:32.624Z,37.90
2022-12-03T10:51:27.467Z,37.00
2022-12-03T10:53:55.533Z,37.20
2022-12-03T10:56:27.561Z,34.80
2022-12-03T10:58:55.458Z,32.30
2022-12-03T11:01:26.280Z,36.50
2022-12-03T11:04:03.562Z,38.10
2022-12-03T11:06:33.170Z,36.40
2022-12-03T11:09:08.487Z,40.50
2022-12-03T11:11:37.579Z,40.50
2022-12-03T11:14:06.051Z,39.90
2022-12-03T11:16:40.382Z,41.90
2022-12-03T11:19:36.893Z,41.80
2022-12-03T11:22:05.187Z,41.20
2022-12-03T11:24:39.367Z,37.90
2022-12-03T11:27:17.154Z,40.90
2022-12-03T11:29:53.780Z,37.80
2022-12-03T11:32:43.947Z,37.40
2022-12-03T11:35:24.489Z,37.20
2022-12-03T11:37:52.768Z,38.70
2022-12-03T11:40:20.828Z,41.00
2022-12-03T11:42:49.842Z,41.60
2022-12-03T11:45:37.319Z,41.60
2022-12-03T11:48:14.663Z,39.00
2022-12-03T11:50:53.468Z,40.80
2022-12-03T11:53:27.465Z,43.60
2022-12-03T11:56:08.640Z,43.90
2022-12-03T11:58:40.279Z,42.70
2022-12-03T12:01:08.784Z,41.90
2022-12-03T12:03:49.248Z,41.40
2022-12-03T12:06:19.880Z,43.80
2022-12-03T12:08:58.444Z,41.40
2022-12-03T12:11:32.870Z,41.60
2022-12-03T12:14:05.924Z,42.90
2022-12-03T12:16:50.941Z,45.20
2022-12-03T12:19:41.383Z,41.00
2022-12-03T12:22:25.082Z,43.80
2022-12-03T12:25:04.524Z,41.90
2022-12-03T12:27:45.615Z,42.50
2022-12-03T12:30:17.024Z,42.90
2022-12-03T12:33:09.149Z,42.60
2022-12-03T12:35:37.080Z,43.30
2022-12-03T12:38:08.734Z,45.30
2022-12-03T12:40:40.152Z,49.70
2022-12-03T12:43:15.299Z,50.60
2022-12-03T12:45:44.520Z,44.70
2022-12-03T12:48:29.279Z,43.00
2022-12-03T12:51:12.818Z,47.80
2022-12-03T12:53:42.953Z,45.40
2022-12-03T12:56:25.633Z,47.00
2022-12-03T12:58:54.411Z,48.10
2022-12-03T13:01:29.515Z,41.40
2022-12-03T13:03:58.509Z,41.60
2022-12-03T13:06:30.750Z,40.00
2022-12-03T13:09:01.914Z,43.00
2022-12-03T13:11:46.012Z,44.10
2022-12-03T13:14:17.692Z,43.50
2022-12-03T13:16:48.506Z,48.30
2022-12-03T13:19:30.829Z,51.40
2022-12-03T13:22:19.598Z,50.30
2022-12-03T13:24:53.992Z,48.70
2022-12-03T13:27:30.291Z,46.90
2022-12-03T13:30:11.771Z,42.70
2022-12-03T13:32:41.777Z,42.90
2022-12-03T13:35:09.979Z,43.00
2022-12-03T13:37:40.846Z,43.20
2022-12-03T13:40:27.402Z,46.20
2022-12-03T13:42:55.800Z,50.50
2022-12-03T13:45:27.663Z,46.20
2022-12-03T13:48:00.413Z,48.50
2022-12-03T13:50:40.087Z,48.90
2022-12-03T13:53:37.320Z,45.60
2022-12-03T13:56:37.960Z,48.10
2022-12-03T13:59:06.664Z,48.40
2022-12-03T14:01:36.487Z,47.40
2022-12-03T14:04:05.007Z,46.10
2022-12-03T14:06:33.724Z,47.00
2022-12-03T14:09:01.912Z,47.10
2022-12-03T14:11:48.744Z,48.40
2022-12-03T14:14:19.853Z,48.50
2022-12-03T14:16:48.460Z,45.30
2022-12-03T14:19:16.663Z,47.60
2022-12-03T14:21:44.678Z,46.00
2022-12-03T14:24:12.904Z,48.30
2022-12-03T14:26:41.275Z,49.60
2022-12-03T14:29:09.324Z,49.40
2022-12-03T14:31:37.816Z,49.00
2022-12-03T14:34:06.156Z,50.90
2022-12-03T14:36:34.406Z,51.60
2022-12-03T14:39:02.626Z,49.20
2022-12-03T14:41:49.177Z,53.60
2022-12-03T14:44:17.613Z,57.10
2022-12-03T14:46:45.997Z,56.30
2022-12-03T14:49:14.669Z,56.40
2022-12-03T14:51:42.855Z,51.90
2022-12-03T14:54:11.372Z,57.00
2022-12-03T14:56:39.402Z,59.40
2022-12-03T14:59:07.376Z,62.20
2022-12-03T15:01:35.514Z,63.60
2022-12-03T15:04:03.861Z,52.70
2022-12-03T15:06:32.218Z,50.70
2022-12-03T15:09:00.260Z,53.70
2022-12-03T15:11:28.748Z,53.50
2022-12-03T15:13:57.160Z,54.80
2022-12-03T15:16:25.180Z,50.10
2022-12-03T15:18:53.197Z,55.60
2022-12-03T15:21:21.295Z,50.60
2022-12-03T15:23:49.552Z,56.20
2022-12-03T15:26:17.571Z,56.40
2022-12-03T15:28:48.454Z,56.40
2022-12-03T15:31:16.619Z,55.60
2022-12-03T15:33:44.753Z,50.10
2022-12-03T15:36:12.808Z,50.30
2022-12-03T15:38:41.005Z,49.40
2022-12-03T15:41:21.446Z,51.40
2022-12-03T15:43:52.833Z,48.40
2022-12-03T15:46:20.968Z,50.70
2022-12-03T15:48:49.974Z,55.30
2022-12-03T15:51:18.156Z,63.60
2022-12-03T15:53:47.463Z,61.70
2022-12-03T15:56:15.636Z,58.80
2022-12-03T15:58:43.751Z,61.70
2022-12-03T16:01:13.831Z,55.70
2022-12-03T16:03:42.238Z,61.60
2022-12-03T16:06:13.533Z,53.90
2022-12-03T16:08:41.764Z,57.70
2022-12-03T16:11:09.552Z,52.30
2022-12-03T16:13:37.388Z,52.50
2022-12-03T16:16:05.913Z,59.80
2022-12-03T16:18:34.120Z,76.80
2022-12-03T16:21:04.842Z,63.40
2022-12-03T16:23:32.834Z,59.80
2022-12-03T16:26:00.985Z,57.40
2022-12-03T16:28:31.811Z,50.20
2022-12-03T16:30:59.832Z,52.60
2022-12-03T16:33:28.208Z,53.60
2022-12-03T16:35:57.951Z,56.60
2022-12-03T16:38:25.838Z,58.50
2022-12-03T16:40:53.852Z,57.40
2022-12-03T16:43:21.929Z,54.80
2022-12-03T16:46:03.161Z,55.50
2022-12-03T16:48:31.389Z,55.40
2022-12-03T16:50:59.329Z,53.70
2022-12-03T16:53:27.354Z,55.70
2022-12-03T16:55:55.186Z,54.70
2022-12-03T16:58:23.368Z,50.30
2022-12-03T17:00:53.393Z,55.40
2022-12-03T17:03:22.954Z,56.40
2022-12-03T17:05:50.973Z,52.30
2022-12-03T17:08:18.743Z,56.50
2022-12-03T17:10:46.757Z,55.60
2022-12-03T17:13:15.498Z,59.00
2022-12-03T17:15:43.315Z,58.40
2022-12-03T17:18:11.623Z,55.60
2022-12-03T17:20:39.657Z,54.60
2022-12-03T17:23:11.964Z,56.60
2022-12-03T17:25:40.111Z,53.40
2022-12-03T17:28:07.988Z,54.50
2022-12-03T17:30:36.694Z,51.50
2022-12-03T17:33:05.283Z,49.80
2022-12-03T17:35:33.313Z,55.00
2022-12-03T17:38:02.638Z,57.00
2022-12-03T17:40:30.790Z,57.20
2022-12-03T17:42:58.705Z,52.60
2022-12-03T17:45:26.818Z,50.70
2022-12-03T17:47:54.900Z,52.20
2022-12-03T17:50:23.268Z,54.40
2022-12-03T17:52:51.365Z,56.00
2022-12-03T17:55:30.956Z,55.00
2022-12-03T17:58:04.621Z,54.30
2022-12-03T18:00:33.576Z,51.20
2022-12-03T18:03:01.580Z,54.90
2022-12-03T18:05:33.968Z,53.60
2022-12-03T18:08:06.380Z,55.50
2022-12-03T18:10:34.373Z,55.70
2022-12-03T18:13:02.642Z,52.70
2022-12-03T18:15:31.964Z,56.00
2022-12-03T18:18:00.196Z,55.40
2022-12-03T18:20:30.545Z,55.50
2022-12-03T18:23:02.423Z,57.40
2022-12-03T18:25:30.884Z,58.20
2022-12-03T18:28:01.258Z,58.90
2022-12-03T18:30:32.009Z,59.70
2022-12-03T18:33:02.391Z,56.30
2022-12-03T18:35:32.208Z,54.90
2022-12-03T18:38:02.879Z,56.40
2022-12-03T18:40:32.941Z,56.40
2022-12-03T18:43:01.263Z,53.20
2022-12-03T18:45:29.810Z,57.30
2022-12-03T18:47:59.006Z,59.10
2022-12-03T18:50:29.128Z,59.70
2022-12-03T18:52:57.036Z,58.30
2022-12-03T18:55:26.952Z,58.90
2022-12-03T18:57:59.680Z,58.70
2022-12-03T19:00:59.091Z,52.80
2022-12-03T19:04:06.660Z,53.40
2022-12-03T19:06:38.386Z,52.20
2022-12-03T19:09:07.699Z,53.20
2022-12-03T19:11:38.468Z,55.80
2022-12-03T19:14:11.242Z,54.10
2022-12-03T19:16:42.628Z,56.80
2022-12-03T19:19:14.634Z,56.20
2022-12-03T19:21:47.775Z,51.10
2022-12-03T19:24:26.575Z,55.50
2022-12-03T19:26:55.868Z,55.10
2022-12-03T19:29:41.147Z,56.60
2022-12-03T19:32:11.794Z,56.70
2022-12-03T19:35:16.749Z,57.60
2022-12-03T19:37:46.997Z,61.40
2022-12-03T19:40:16.735Z,56.10
2022-12-03T19:42:47.029Z,57.90
2022-12-03T19:45:15.504Z,54.10
2022-12-03T19:47:44.535Z,56.70
2022-12-03T19:50:22.378Z,55.80
2022-12-03T19:52:59.146Z,57.30
2022-12-03T19:55:29.974Z,54.80
2022-12-03T19:58:02.157Z,53.50
2022-12-03T20:00:32.028Z,51.60
2022-12-03T20:03:01.322Z,57.80
2022-12-03T20:05:39.126Z,58.60
2022-12-03T20:08:15.092Z,54.20
2022-12-03T20:10:44.785Z,57.50
2022-12-03T20:13:16.084Z,56.90
2022-12-03T20:15:44.376Z,56.80
2022-12-03T20:18:12.490Z,61.80
2022-12-03T20:20:43.072Z,58.70
2022-12-03T20:23:13.855Z,57.70
2022-12-03T20:25:41.846Z,54.10
2022-12-03T20:28:15.998Z,55.30
2022-12-03T20:30:47.123Z,56.70
2022-12-03T20:33:16.853Z,53.20
2022-12-03T20:35:45.039Z,58.20
2022-12-03T20:38:17.749Z,54.00
2022-12-03T20:40:48.175Z,54.90
2022-12-03T20:43:20.671Z,54.20
2022-12-03T20:46:02.867Z,53.80
2022-12-03T20:48:33.299Z,53.10
2022-12-03T20:51:12.164Z,54.70
2022-12-03T20:53:44.593Z,54.00
2022-12-03T20:56:26.679Z,54.10
2022-12-03T20:58:55.078Z,54.00
2022-12-03T21:01:30.609Z,53.20
2022-12-03T21:04:05.305Z,52.90
2022-12-03T21:06:37.433Z,51.60
2022-12-03T21:09:07.302Z,51.00
2022-12-03T21:11:36.589Z,53.80
2022-12-03T21:14:06.606Z,55.20
2022-12-03T21:17:08.026Z,51.10
2022-12-03T21:19:29.081Z,50.80
2022-12-03T21:21:58.832Z,53.40
2022-12-03T21:24:26.818Z,51.10
2022-12-03T21:26:58.964Z,50.30
2022-12-03T21:29:26.808Z,50.20
2022-12-03T21:31:54.731Z,52.50
2022-12-03T21:34:23.417Z,52.50
2022-12-03T21:36:57.141Z,51.00
2022-12-03T21:39:27.389Z,47.70
2022-12-03T21:42:18.947Z,48.40
2022-12-03T21:44:44.615Z,49.30
2022-12-03T21:47:14.255Z,51.50
2022-12-03T21:49:43.430Z,52.10
2022-12-03T21:52:13.569Z,48.80
2022-12-03T21:54:41.717Z,49.70
2022-12-03T21:57:10.222Z,48.50
2022-12-03T21:59:41.022Z,51.40
2022-12-03T22:02:10.734Z,51.10
2022-12-03T22:04:39.896Z,50.20
2022-12-03T22:07:08.615Z,50.80
2022-12-03T22:09:36.522Z,51.10
2022-12-03T22:12:09.084Z,50.30
2022-12-03T22:14:40.416Z,49.40
2022-12-03T22:17:11.084Z,47.50
2022-12-03T22:19:39.767Z,49.60
2022-12-03T22:22:08.629Z,49.40
2022-12-03T22:24:38.903Z,50.80
2022-12-03T22:27:06.936Z,48.70
2022-12-03T22:29:35.079Z,50.60
2022-12-03T22:32:04.213Z,50.80
2022-12-03T22:34:33.751Z,46.90
2022-12-03T22:37:01.890Z,49.20
2022-12-03T22:39:29.934Z,47.50
2022-12-03T22:41:58.242Z,48.20
2022-12-03T22:44:27.639Z,48.00
2022-12-03T22:46:56.637Z,50.10
2022-12-03T22:49:27.500Z,47.70
2022-12-03T22:51:58.351Z,48.30
2022-12-03T22:54:26.229Z,50.30
2022-12-03T22:56:54.257Z,50.10
2022-12-03T22:59:22.074Z,49.40
2022-12-03T23:01:50.228Z,46.60
2022-12-03T23:04:18.304Z,45.50
2022-12-03T23:06:46.479Z,48.60
2022-12-03T23:09:17.989Z,51.00
2022-12-03T23:11:46.123Z,51.40
2022-12-03T23:14:14.211Z,46.80
2022-12-03T23:16:42.175Z,47.80
2022-12-03T23:19:09.982Z,51.00
2022-12-03T23:21:37.743Z,48.60
2022-12-03T23:24:06.459Z,49.20
2022-12-03T23:26:37.561Z,48.70
2022-12-03T23:29:06.419Z,51.10
2022-12-03T23:31:35.031Z,47.30
2022-12-03T23:34:03.935Z,47.40
2022-12-03T23:36:32.950Z,49.30
2022-12-03T23:39:00.966Z,48.50
2022-12-03T23:41:28.818Z,47.20
2022-12-03T23:43:56.882Z,47.80
2022-12-03T23:46:27.331Z,43.70
2022-12-03T23:48:55.409Z,47.90
2022-12-03T23:51:24.988Z,45.20
2022-12-03T23:53:54.503Z,45.10
2022-12-03T23:56:26.748Z,46.10
2022-12-03T23:58:56.527Z,43.10
